createdAt,value
2018-05-02T00:00:03.671Z,9.75
2018-05-02T00:02:31.129Z,11.32
2018-05-02T00:04:58.658Z,9.27
2018-05-02T00:07:26.056Z,9.93
2018-05-02T00:09:53.545Z,11.52
2018-05-02T00:12:21.015Z,10.95
2018-05-02T00:14:49.249Z,15.77
2018-05-02T00:17:16.715Z,20.33
2018-05-02T00:19:44.190Z,11.63
2018-05-02T00:22:11.661Z,11.32
2018-05-02T00:24:39.119Z,12.05
2018-05-02T00:27:06.587Z,10.82
2018-05-02T00:29:34.060Z,11.30
2018-05-02T00:32:02.513Z,10.90
2018-05-02T00:34:29.996Z,12.48
2018-05-02T00:36:57.455Z,10.00
2018-05-02T00:39:24.998Z,11.80
2018-05-02T00:41:52.445Z,7.85
2018-05-02T00:44:19.911Z,9.15
2018-05-02T00:46:47.389Z,10.73
2018-05-02T00:49:17.715Z,8.85
2018-05-02T00:51:45.174Z,12.23
2018-05-02T00:54:12.640Z,10.77
2018-05-02T00:56:40.105Z,9.55
2018-05-02T00:59:07.609Z,9.85
2018-05-02T01:01:35.071Z,15.90
2018-05-02T01:04:02.537Z,10.23
2018-05-02T01:06:30.011Z,10.15
2018-05-02T01:08:57.478Z,11.52
2018-05-02T01:11:24.948Z,11.15
2018-05-02T01:13:53.176Z,10.35
2018-05-02T01:16:20.644Z,13.85
2018-05-02T01:18:48.103Z,11.32
2018-05-02T01:21:15.556Z,9.85
2018-05-02T01:23:43.043Z,11.02
2018-05-02T01:26:10.488Z,9.63
2018-05-02T01:28:37.957Z,13.02
2018-05-02T01:31:05.423Z,11.23
2018-05-02T01:33:32.891Z,10.70
2018-05-02T01:36:00.367Z,8.98
2018-05-02T01:38:27.897Z,10.65
2018-05-02T01:40:55.353Z,9.30
2018-05-02T01:43:22.800Z,9.90
2018-05-02T01:45:51.108Z,9.93
2018-05-02T01:48:18.582Z,8.95
2018-05-02T01:50:46.041Z,9.35
2018-05-02T01:53:13.512Z,11.05
2018-05-02T01:55:40.974Z,12.68
2018-05-02T01:58:08.435Z,11.27
2018-05-02T02:00:35.907Z,9.57
2018-05-02T02:03:03.378Z,11.50
2018-05-02T02:05:30.846Z,10.07
2018-05-02T02:07:58.315Z,10.80
2018-05-02T02:10:25.787Z,10.77
2018-05-02T02:12:53.260Z,11.85
2018-05-02T02:15:20.771Z,16.83
2018-05-02T02:17:48.240Z,15.70
2018-05-02T02:20:15.721Z,11.65
2018-05-02T02:22:43.172Z,12.20
2018-05-02T02:25:10.656Z,11.70
2018-05-02T02:27:38.122Z,10.40
2018-05-02T02:30:05.576Z,9.65
2018-05-02T02:32:33.041Z,10.40
2018-05-02T02:35:00.510Z,11.23
2018-05-02T02:37:28.752Z,12.48
2018-05-02T02:39:56.214Z,11.35
2018-05-02T02:42:23.672Z,9.63
2018-05-02T02:44:51.971Z,9.70
2018-05-02T02:47:19.420Z,9.80
2018-05-02T02:49:47.666Z,8.98
2018-05-02T02:52:15.140Z,10.77
2018-05-02T02:54:42.598Z,9.93
2018-05-02T02:57:10.066Z,12.10
2018-05-02T02:59:37.525Z,10.63
2018-05-02T03:02:05.020Z,11.10
2018-05-02T03:04:33.255Z,12.05
2018-05-02T03:07:00.720Z,11.35
2018-05-02T03:09:28.186Z,10.35
2018-05-02T03:11:55.648Z,12.27
2018-05-02T03:14:23.124Z,12.35
2018-05-02T03:16:50.586Z,10.88
2018-05-02T03:19:18.052Z,12.60
2018-05-02T03:21:45.518Z,11.05
2018-05-02T03:24:12.974Z,12.70
2018-05-02T03:26:40.464Z,11.73
2018-05-02T03:29:08.692Z,11.90
2018-05-02T03:31:36.188Z,14.60
2018-05-02T03:34:03.658Z,12.43
2018-05-02T03:36:31.121Z,13.43
2018-05-02T03:38:58.602Z,13.13
2018-05-02T03:41:26.901Z,12.18
2018-05-02T03:43:54.357Z,11.57
2018-05-02T03:46:21.818Z,11.80
2018-05-02T03:48:50.057Z,15.30
2018-05-02T03:51:17.543Z,12.90
2018-05-02T03:53:45.774Z,14.20
2018-05-02T03:56:13.238Z,11.25
2018-05-02T03:58:40.785Z,11.25
2018-05-02T04:01:20.046Z,11.40
2018-05-02T04:03:59.387Z,14.73
2018-05-02T04:09:38.626Z,13.75
2018-05-02T04:12:06.091Z,12.27
2018-05-02T04:14:33.569Z,10.98
2018-05-02T04:17:01.033Z,11.00
2018-05-02T04:19:28.499Z,12.70
2018-05-02T04:21:55.974Z,11.32
2018-05-02T04:24:23.432Z,10.80
2018-05-02T04:26:50.908Z,12.90
2018-05-02T04:29:19.149Z,10.43
2018-05-02T04:31:46.619Z,11.55
2018-05-02T04:34:14.090Z,10.25
2018-05-02T04:36:41.544Z,11.12
2018-05-02T04:39:09.020Z,10.27
2018-05-02T04:41:36.491Z,10.40
2018-05-02T04:44:03.948Z,12.95
2018-05-02T04:46:31.409Z,10.98
2018-05-02T04:48:58.882Z,9.32
2018-05-02T04:51:26.358Z,10.48
2018-05-02T04:53:54.580Z,10.20
2018-05-02T04:56:22.036Z,10.40
2018-05-02T04:58:49.698Z,10.18
2018-05-02T05:01:17.165Z,10.00
2018-05-02T05:03:44.647Z,11.95
2018-05-02T05:06:12.108Z,10.93
2018-05-02T05:08:39.569Z,9.55
2018-05-02T05:11:07.031Z,9.90
2018-05-02T05:13:34.506Z,11.30
2018-05-02T05:16:01.980Z,9.85
2018-05-02T05:18:29.438Z,10.25
2018-05-02T05:20:56.897Z,10.25
2018-05-02T05:23:24.401Z,32.40
2018-05-02T05:25:51.867Z,20.62
2018-05-02T05:28:20.220Z,29.25
2018-05-02T05:30:47.829Z,16.58
2018-05-02T05:33:16.054Z,10.98
2018-05-02T05:35:43.521Z,12.90
2018-05-02T05:38:10.993Z,9.65
2018-05-02T05:40:38.478Z,15.85
2018-05-02T05:43:05.938Z,11.27
2018-05-02T05:45:33.403Z,9.50
2018-05-02T05:48:00.860Z,9.35
2018-05-02T05:50:28.330Z,10.00
2018-05-02T05:52:55.823Z,10.27
2018-05-02T05:55:24.048Z,9.07
2018-05-02T05:57:51.515Z,10.93
2018-05-02T06:00:18.970Z,8.85
2018-05-02T06:02:46.434Z,8.68
2018-05-02T06:05:13.975Z,8.10
2018-05-02T06:07:41.400Z,9.20
2018-05-02T06:10:09.648Z,8.85
2018-05-02T06:12:37.132Z,7.37
2018-05-02T06:15:04.563Z,7.57
2018-05-02T06:17:32.047Z,7.53
2018-05-02T06:20:00.275Z,11.27
2018-05-02T06:22:28.502Z,10.13
2018-05-02T06:24:56.739Z,7.67
2018-05-02T06:27:24.969Z,7.67
2018-05-02T06:29:52.464Z,7.57
2018-05-02T06:32:19.933Z,6.83
2018-05-02T06:34:48.152Z,7.13
2018-05-02T06:37:15.615Z,6.20
2018-05-02T06:39:43.088Z,5.97
2018-05-02T06:42:10.568Z,7.03
2018-05-02T06:44:38.027Z,8.87
2018-05-02T06:47:05.493Z,5.30
2018-05-02T06:49:32.965Z,5.70
2018-05-02T06:52:00.430Z,4.97
2018-05-02T06:54:27.903Z,6.70
2018-05-02T06:56:55.369Z,6.20
2018-05-02T06:59:22.841Z,7.83
2018-05-02T07:01:50.294Z,5.63
2018-05-02T07:04:17.763Z,6.87
2018-05-02T07:06:45.245Z,4.60
2018-05-02T07:09:13.479Z,4.70
2018-05-02T07:11:40.937Z,8.50
2018-05-02T07:14:08.395Z,5.77
2018-05-02T07:16:35.867Z,4.77
2018-05-02T07:19:03.343Z,6.47
2018-05-02T07:21:30.819Z,6.03
2018-05-02T07:23:58.298Z,8.27
2018-05-02T07:26:25.754Z,5.80
2018-05-02T07:28:53.244Z,7.33
2018-05-02T07:31:20.698Z,4.43
2018-05-02T07:33:48.921Z,5.67
2018-05-02T07:36:16.401Z,7.03
2018-05-02T07:38:43.868Z,4.37
2018-05-02T07:41:11.339Z,6.37
2018-05-02T07:43:38.813Z,5.50
2018-05-02T07:46:06.282Z,7.03
2018-05-02T07:48:33.759Z,5.43
2018-05-02T07:51:01.222Z,5.43
2018-05-02T07:53:29.446Z,6.80
2018-05-02T07:55:56.949Z,6.07
2018-05-02T07:58:24.398Z,5.97
2018-05-02T08:00:51.861Z,6.37
2018-05-02T08:03:19.321Z,4.70
2018-05-02T08:05:46.781Z,5.43
2018-05-02T08:08:14.265Z,5.53
2018-05-02T08:10:41.733Z,5.30
2018-05-02T08:13:09.206Z,6.10
2018-05-02T08:15:36.662Z,4.53
2018-05-02T08:18:04.125Z,5.97
2018-05-02T08:20:31.591Z,5.20
2018-05-02T08:22:59.067Z,7.00
2018-05-02T08:25:27.299Z,6.27
2018-05-02T08:27:54.753Z,5.50
2018-05-02T08:30:22.222Z,5.73
2018-05-02T08:32:49.785Z,13.00
2018-05-02T08:35:17.969Z,5.53
2018-05-02T08:37:45.436Z,6.47
2018-05-02T08:40:12.905Z,5.17
2018-05-02T08:42:41.125Z,4.00
2018-05-02T08:45:09.367Z,3.73
2018-05-02T08:47:36.831Z,5.67
2018-05-02T08:50:04.295Z,3.37
2018-05-02T08:52:31.770Z,5.40
2018-05-02T08:54:59.993Z,3.80
2018-05-02T08:57:27.494Z,3.00
2018-05-02T08:59:54.964Z,5.37
2018-05-02T09:02:22.425Z,3.43
2018-05-02T09:04:49.885Z,3.23
2018-05-02T09:07:17.356Z,3.20
2018-05-02T09:09:44.847Z,6.10
2018-05-02T09:12:12.320Z,5.00
2018-05-02T09:14:40.540Z,3.30
2018-05-02T09:17:07.998Z,4.40
2018-05-02T09:19:35.469Z,4.37
2018-05-02T09:22:02.950Z,5.23
2018-05-02T09:24:30.419Z,5.50
2018-05-02T09:26:57.882Z,5.00
2018-05-02T09:29:25.333Z,6.23
2018-05-02T09:31:52.789Z,6.60
2018-05-02T09:34:20.282Z,4.37
2018-05-02T09:36:47.755Z,3.07
2018-05-02T09:39:15.214Z,5.07
2018-05-02T09:41:42.690Z,4.20
2018-05-02T09:44:10.165Z,7.57
2018-05-02T09:46:37.635Z,5.73
2018-05-02T09:49:05.875Z,4.53
2018-05-02T09:51:33.330Z,3.63
2018-05-02T09:54:00.801Z,2.63
2018-05-02T09:56:28.255Z,5.97
2018-05-02T09:58:56.501Z,4.50
2018-05-02T10:01:23.959Z,2.73
2018-05-02T10:03:52.195Z,4.43
2018-05-02T10:06:19.665Z,2.67
2018-05-02T10:08:47.135Z,5.27
2018-05-02T10:11:14.593Z,3.13
2018-05-02T10:13:42.064Z,5.40
2018-05-02T10:16:09.523Z,2.90
2018-05-02T10:18:36.989Z,2.80
2018-05-02T10:21:04.445Z,2.80
2018-05-02T10:23:31.935Z,3.63
2018-05-02T10:26:00.169Z,3.93
2018-05-02T10:28:27.637Z,4.87
2018-05-02T10:30:55.099Z,3.43
2018-05-02T10:33:22.567Z,4.13
2018-05-02T10:35:50.048Z,3.27
2018-05-02T10:38:17.519Z,4.53
2018-05-02T10:40:44.979Z,5.80
2018-05-02T10:43:12.468Z,5.70
2018-05-02T10:45:40.691Z,6.93
2018-05-02T10:48:08.165Z,2.80
2018-05-02T10:50:35.702Z,2.53
2018-05-02T10:53:03.104Z,3.67
2018-05-02T10:55:30.576Z,5.13
2018-05-02T10:57:58.135Z,4.93
2018-05-02T11:00:25.603Z,2.93
2018-05-02T11:02:53.076Z,2.57
2018-05-02T11:05:20.546Z,2.37
2018-05-02T11:07:48.000Z,5.87
2018-05-02T11:10:15.468Z,1.70
2018-05-02T11:12:42.958Z,3.30
2018-05-02T11:15:10.416Z,4.13
2018-05-02T11:17:38.650Z,3.43
2018-05-02T11:20:06.114Z,2.70
2018-05-02T11:22:33.592Z,2.03
2018-05-02T11:25:01.066Z,3.97
2018-05-02T11:27:28.540Z,3.17
2018-05-02T11:29:56.771Z,3.77
2018-05-02T11:32:24.234Z,1.70
2018-05-02T11:34:51.696Z,4.07
2018-05-02T11:37:19.168Z,3.47
2018-05-02T11:39:47.403Z,2.30
2018-05-02T11:42:15.652Z,2.23
2018-05-02T11:44:43.114Z,1.70
2018-05-02T11:47:10.589Z,6.53
2018-05-02T11:49:38.074Z,7.67
2018-05-02T11:52:06.298Z,4.37
2018-05-02T11:54:33.765Z,6.40
2018-05-02T11:57:01.239Z,2.10
2018-05-02T11:59:28.688Z,3.73
2018-05-02T12:01:56.182Z,3.60
2018-05-02T12:04:23.637Z,4.40
2018-05-02T12:06:51.094Z,1.77
2018-05-02T12:09:18.559Z,2.53
2018-05-02T12:11:46.017Z,1.23
2018-05-02T12:14:13.496Z,2.00
2018-05-02T12:16:40.964Z,2.20
2018-05-02T12:19:08.434Z,3.63
2018-05-02T12:21:35.892Z,2.70
2018-05-02T12:24:03.368Z,3.70
2018-05-02T12:26:30.865Z,2.83
2018-05-02T12:28:58.346Z,3.33
2018-05-02T12:31:25.817Z,2.60
2018-05-02T12:33:53.292Z,3.70
2018-05-02T12:36:20.747Z,1.70
2018-05-02T12:38:48.238Z,2.60
2018-05-02T12:41:15.710Z,1.63
2018-05-02T12:43:43.187Z,1.97
2018-05-02T12:46:11.404Z,2.27
2018-05-02T12:48:38.867Z,2.97
2018-05-02T12:51:06.348Z,1.47
2018-05-02T12:53:33.816Z,1.47
2018-05-02T12:56:01.357Z,2.00
2018-05-02T12:58:28.742Z,0.80
2018-05-02T13:00:56.226Z,1.20
2018-05-02T13:03:23.697Z,1.80
2018-05-02T13:05:51.158Z,3.23
2018-05-02T13:08:18.638Z,1.53
2018-05-02T13:10:46.862Z,1.87
2018-05-02T13:13:14.332Z,1.83
2018-05-02T13:15:41.884Z,3.10
2018-05-02T13:18:09.298Z,2.07
2018-05-02T13:20:36.767Z,1.40
2018-05-02T13:23:04.230Z,1.47
2018-05-02T13:25:31.695Z,1.30
2018-05-02T13:27:59.942Z,1.77
2018-05-02T13:30:27.402Z,2.17
2018-05-02T13:32:55.624Z,1.80
2018-05-02T13:35:23.864Z,1.60
2018-05-02T13:37:51.324Z,1.50
2018-05-02T13:40:18.806Z,2.47
2018-05-02T13:42:46.266Z,1.50
2018-05-02T13:45:13.740Z,1.67
2018-05-02T13:47:41.218Z,1.20
2018-05-02T13:50:08.677Z,1.03
2018-05-02T13:52:36.167Z,1.30
2018-05-02T13:55:04.398Z,1.23
2018-05-02T13:57:31.854Z,1.20
2018-05-02T13:59:59.316Z,1.40
2018-05-02T14:02:26.800Z,1.10
2018-05-02T14:04:54.274Z,2.23
2018-05-02T14:07:21.744Z,1.50
2018-05-02T14:09:49.196Z,1.60
2018-05-02T14:12:16.690Z,1.30
2018-05-02T14:14:44.924Z,1.43
2018-05-02T14:17:12.368Z,1.10
2018-05-02T14:19:39.844Z,1.23
2018-05-02T14:22:07.398Z,1.50
2018-05-02T14:24:34.862Z,2.93
2018-05-02T14:27:02.446Z,4.10
2018-05-02T14:29:29.924Z,2.43
2018-05-02T14:31:57.387Z,4.10
2018-05-02T14:34:24.869Z,4.73
2018-05-02T14:36:53.092Z,3.67
2018-05-02T14:39:20.579Z,1.73
2018-05-02T14:41:48.822Z,2.97
2018-05-02T14:44:16.280Z,3.80
2018-05-02T14:46:43.764Z,2.93
2018-05-02T14:49:11.264Z,2.23
2018-05-02T14:51:38.738Z,2.67
2018-05-02T14:54:06.202Z,1.23
2018-05-02T14:56:33.670Z,3.37
2018-05-02T14:59:01.172Z,1.50
2018-05-02T15:01:28.656Z,3.70
2018-05-02T15:03:56.110Z,2.20
2018-05-02T15:06:23.574Z,1.30
2018-05-02T15:08:51.034Z,1.37
2018-05-02T15:11:18.502Z,2.30
2018-05-02T15:13:45.956Z,1.37
2018-05-02T15:16:13.426Z,3.10
2018-05-02T15:18:40.887Z,1.40
2018-05-02T15:21:08.360Z,3.23
2018-05-02T15:23:35.836Z,1.30
2018-05-02T15:26:03.301Z,1.73
2018-05-02T15:28:30.776Z,1.87
2018-05-02T15:30:58.224Z,1.57
2018-05-02T15:33:25.692Z,1.67
2018-05-02T15:35:53.168Z,2.97
2018-05-02T15:38:20.634Z,1.50
2018-05-02T15:40:48.110Z,1.20
2018-05-02T15:43:15.571Z,2.67
2018-05-02T15:45:43.043Z,3.60
2018-05-02T15:48:10.522Z,2.03
2018-05-02T15:50:38.759Z,1.50
2018-05-02T15:53:06.232Z,3.93
2018-05-02T15:55:33.699Z,1.70
2018-05-02T15:58:01.351Z,3.33
2018-05-02T16:00:29.536Z,2.53
2018-05-02T16:02:56.997Z,4.20
2018-05-02T16:05:24.466Z,4.73
2018-05-02T16:07:51.928Z,3.30
2018-05-02T16:10:19.389Z,2.93
2018-05-02T16:12:46.882Z,1.70
2018-05-02T16:15:14.351Z,4.87
2018-05-02T16:17:42.565Z,3.97
2018-05-02T16:20:10.041Z,45.20
2018-05-02T16:22:37.505Z,2.60
2018-05-02T16:25:04.989Z,1.93
2018-05-02T16:27:32.453Z,2.03
2018-05-02T16:29:59.913Z,2.77
2018-05-02T16:32:27.390Z,2.10
2018-05-02T16:34:54.855Z,2.33
2018-05-02T16:37:22.337Z,1.70
2018-05-02T16:39:49.800Z,1.53
2018-05-02T16:42:17.254Z,2.73
2018-05-02T16:44:44.759Z,2.87
2018-05-02T16:47:12.983Z,4.13
2018-05-02T16:49:41.228Z,2.77
2018-05-02T16:52:08.693Z,1.83
2018-05-02T16:54:36.159Z,1.47
2018-05-02T16:57:03.635Z,3.83
2018-05-02T16:59:31.115Z,1.80
2018-05-02T17:01:58.609Z,4.37
2018-05-02T17:04:26.953Z,2.30
2018-05-02T17:06:55.161Z,1.50
2018-05-02T17:09:22.629Z,1.60
2018-05-02T17:11:50.140Z,1.97
2018-05-02T17:14:17.600Z,3.60
2018-05-02T17:16:45.143Z,4.87
2018-05-02T17:19:12.531Z,1.80
2018-05-02T17:21:40.017Z,3.13
2018-05-02T17:24:07.476Z,2.33
2018-05-02T17:26:34.960Z,2.73
2018-05-02T17:29:02.424Z,3.70
2018-05-02T17:31:29.887Z,3.93
2018-05-02T17:33:57.355Z,12.83
2018-05-02T17:36:24.835Z,8.17
2018-05-02T17:38:52.298Z,7.33
2018-05-02T17:41:20.537Z,11.63
2018-05-02T17:43:48.035Z,18.43
2018-05-02T17:46:15.510Z,9.30
2018-05-02T17:48:42.973Z,5.70
2018-05-02T17:51:11.219Z,7.53
2018-05-02T17:53:38.689Z,4.23
2018-05-02T17:56:06.169Z,3.10
2018-05-02T17:58:33.631Z,1.53
2018-05-02T18:01:01.101Z,1.37
2018-05-02T18:03:28.593Z,3.03
2018-05-02T18:05:56.820Z,3.00
2018-05-02T18:08:24.281Z,1.40
2018-05-02T18:10:51.763Z,3.87
2018-05-02T18:13:19.229Z,1.17
2018-05-02T18:15:46.761Z,1.40
2018-05-02T18:18:14.219Z,1.50
2018-05-02T18:20:41.695Z,1.50
2018-05-02T18:23:09.178Z,3.10
2018-05-02T18:25:36.659Z,1.60
2018-05-02T18:28:04.217Z,1.70
2018-05-02T18:30:31.635Z,4.63
2018-05-02T18:32:59.103Z,4.13
2018-05-02T18:35:26.575Z,1.70
2018-05-02T18:37:54.031Z,2.17
2018-05-02T18:40:21.525Z,1.80
2018-05-02T18:42:49.767Z,3.40
2018-05-02T18:45:17.229Z,2.97
2018-05-02T18:47:44.699Z,1.57
2018-05-02T18:50:12.200Z,1.53
2018-05-02T18:52:39.715Z,1.50
2018-05-02T18:55:07.282Z,3.70
2018-05-02T18:57:34.758Z,3.07
2018-05-02T19:00:02.240Z,2.97
2018-05-02T19:02:29.725Z,2.43
2018-05-02T19:04:57.216Z,2.40
2018-05-02T19:07:25.459Z,4.80
2018-05-02T19:09:52.953Z,3.10
2018-05-02T19:12:21.245Z,4.27
2018-05-02T19:14:48.667Z,2.90
2018-05-02T19:17:16.135Z,2.30
2018-05-02T19:19:50.030Z,3.83
2018-05-02T19:22:17.497Z,3.07
2018-05-02T19:24:50.768Z,7.17
2018-05-02T19:27:18.243Z,4.23
2018-05-02T19:29:45.781Z,4.27
2018-05-02T19:32:18.951Z,7.83
2018-05-02T19:34:47.195Z,5.90
2018-05-02T19:37:14.679Z,6.53
2018-05-02T19:39:47.743Z,3.63
2018-05-02T19:42:21.396Z,7.10
2018-05-02T19:44:49.650Z,5.27
2018-05-02T19:47:17.138Z,5.87
2018-05-02T19:49:45.414Z,20.40
2018-05-02T19:52:18.590Z,17.27
2018-05-02T19:54:46.092Z,11.60
2018-05-02T19:57:14.438Z,7.00
2018-05-02T19:59:41.870Z,7.10
2018-05-02T20:02:14.987Z,3.33
2018-05-02T20:04:43.252Z,3.00
2018-05-02T20:07:16.411Z,2.80
2018-05-02T20:09:49.634Z,2.93
2018-05-02T20:12:34.833Z,3.70
2018-05-02T20:15:02.306Z,3.87
2018-05-02T20:17:29.780Z,4.50
2018-05-02T20:19:58.028Z,2.90
2018-05-02T20:22:25.498Z,3.33
2018-05-02T20:24:52.994Z,3.63
2018-05-02T20:27:21.235Z,8.30
2018-05-02T20:29:48.711Z,4.37
2018-05-02T20:32:16.952Z,3.33
2018-05-02T20:34:44.467Z,6.70
2018-05-02T20:37:11.929Z,6.37
2018-05-02T20:39:39.414Z,4.50
2018-05-02T20:42:07.653Z,3.40
2018-05-02T20:44:35.150Z,3.83
2018-05-02T20:47:02.633Z,3.83
2018-05-02T20:49:30.879Z,7.43
2018-05-02T20:51:58.342Z,7.03
2018-05-02T20:54:25.862Z,3.90
2018-05-02T20:56:54.062Z,3.27
2018-05-02T20:59:21.523Z,3.30
2018-05-02T21:01:49.007Z,3.77
2018-05-02T21:04:16.478Z,5.97
2018-05-02T21:06:43.941Z,6.57
2018-05-02T21:09:11.408Z,7.13
2018-05-02T21:11:38.889Z,5.63
2018-05-02T21:14:06.380Z,6.37
2018-05-02T21:16:33.865Z,4.20
2018-05-02T21:19:01.342Z,9.90
2018-05-02T21:21:28.820Z,4.07
2018-05-02T21:23:56.288Z,3.50
2018-05-02T21:26:23.778Z,4.43
2018-05-02T21:28:51.998Z,4.77
2018-05-02T21:31:19.476Z,4.43
2018-05-02T21:33:46.956Z,5.17
2018-05-02T21:36:14.419Z,6.67
2018-05-02T21:38:41.906Z,6.27
2018-05-02T21:41:09.358Z,5.97
2018-05-02T21:43:36.828Z,5.03
2018-05-02T21:46:04.306Z,5.10
2018-05-02T21:48:32.546Z,5.83
2018-05-02T21:51:00.065Z,8.53
2018-05-02T21:53:27.538Z,7.40
2018-05-02T21:55:55.005Z,7.90
2018-05-02T21:58:22.476Z,11.73
2018-05-02T22:00:49.958Z,10.97
2018-05-02T22:03:17.452Z,10.97
2018-05-02T22:05:44.922Z,7.37
2018-05-02T22:08:13.157Z,9.90
2018-05-02T22:10:40.642Z,6.60
2018-05-02T22:13:08.110Z,11.20
2018-05-02T22:15:35.610Z,10.53
2018-05-02T22:18:03.843Z,5.83
2018-05-02T22:20:31.302Z,7.13
2018-05-02T22:22:58.779Z,6.33
2018-05-02T22:25:26.244Z,5.97
2018-05-02T22:27:53.729Z,5.07
2018-05-02T22:30:21.965Z,10.37
2018-05-02T22:32:49.431Z,5.90
2018-05-02T22:35:16.890Z,4.30
2018-05-02T22:37:44.349Z,6.17
2018-05-02T22:40:11.830Z,4.90
2018-05-02T22:42:39.296Z,4.50
2018-05-02T22:45:06.766Z,6.47
2018-05-02T22:47:34.245Z,6.40
2018-05-02T22:50:01.712Z,9.10
2018-05-02T22:52:29.189Z,6.00
2018-05-02T22:54:57.425Z,7.70
2018-05-02T22:57:24.889Z,6.10
2018-05-02T22:59:52.357Z,6.30
2018-05-02T23:02:19.830Z,5.20
2018-05-02T23:04:47.301Z,6.50
2018-05-02T23:07:14.767Z,5.30
2018-05-02T23:09:42.240Z,5.70
2018-05-02T23:12:09.724Z,5.93
2018-05-02T23:14:37.954Z,5.80
2018-05-02T23:17:05.412Z,10.23
2018-05-02T23:19:32.888Z,5.83
2018-05-02T23:22:00.350Z,6.00
2018-05-02T23:24:27.844Z,6.50
2018-05-02T23:26:55.305Z,5.53
2018-05-02T23:29:22.798Z,6.73
2018-05-02T23:31:50.284Z,6.57
2018-05-02T23:34:17.747Z,6.80
2018-05-02T23:36:45.221Z,4.90
2018-05-02T23:39:12.688Z,5.60
2018-05-02T23:41:40.180Z,6.67
2018-05-02T23:44:07.634Z,8.03
2018-05-02T23:46:35.116Z,5.43
2018-05-02T23:49:03.345Z,7.30
2018-05-02T23:51:30.822Z,5.10
2018-05-02T23:53:58.299Z,5.20
2018-05-02T23:56:25.764Z,5.10
2018-05-02T23:58:53.244Z,5.97
